sensor_id;sensor_type;location;lat;lon;timestamp;P1;durP1;ratioP1;P2;durP2;ratioP2
28926;SDS011;16038;47.692;9.400;2022-10-31T00:02:19;106.88;;;23.27;;
28926;SDS011;16038;47.692;9.400;2022-10-31T00:04:45;203.15;;;25.00;;
28926;SDS011;16038;47.692;9.400;2022-10-31T00:07:10;214.55;;;27.73;;
28926;SDS011;16038;47.692;9.400;2022-10-31T00:09:36;103.60;;;23.95;;
28926;SDS011;16038;47.692;9.400;2022-10-31T00:12:01;66.57;;;21.75;;
28926;SDS011;16038;47.692;9.400;2022-10-31T00:14:27;59.97;;;20.67;;
28926;SDS011;16038;47.692;9.400;2022-10-31T00:16:52;74.88;;;21.70;;
28926;SDS011;16038;47.692;9.400;2022-10-31T00:19:17;108.95;;;22.77;;
28926;SDS011;16038;47.692;9.400;2022-10-31T00:21:43;157.55;;;22.58;;
28926;SDS011;16038;47.692;9.400;2022-10-31T00:24:08;38.25;;;19.80;;
28926;SDS011;16038;47.692;9.400;2022-10-31T00:26:34;35.33;;;19.95;;
28926;SDS011;16038;47.692;9.400;2022-10-31T00:28:59;37.17;;;18.52;;
28926;SDS011;16038;47.692;9.400;2022-10-31T00:31:25;28.38;;;17.90;;
28926;SDS011;16038;47.692;9.400;2022-10-31T00:33:50;73.32;;;19.95;;
28926;SDS011;16038;47.692;9.400;2022-10-31T00:36:17;86.22;;;20.95;;
28926;SDS011;16038;47.692;9.400;2022-10-31T00:38:44;58.22;;;20.40;;
28926;SDS011;16038;47.692;9.400;2022-10-31T00:41:11;80.22;;;20.23;;
28926;SDS011;16038;47.692;9.400;2022-10-31T00:43:38;68.53;;;19.65;;
28926;SDS011;16038;47.692;9.400;2022-10-31T00:46:03;33.88;;;18.80;;
28926;SDS011;16038;47.692;9.400;2022-10-31T00:48:29;30.08;;;17.38;;
28926;SDS011;16038;47.692;9.400;2022-10-31T00:50:54;35.45;;;16.88;;
28926;SDS011;16038;47.692;9.400;2022-10-31T00:53:20;71.28;;;21.65;;
28926;SDS011;16038;47.692;9.400;2022-10-31T00:55:45;62.25;;;19.30;;
28926;SDS011;16038;47.692;9.400;2022-10-31T00:58:11;85.95;;;19.75;;
28926;SDS011;16038;47.692;9.400;2022-10-31T01:00:36;53.42;;;20.13;;
28926;SDS011;16038;47.692;9.400;2022-10-31T01:03:02;40.50;;;18.92;;
28926;SDS011;16038;47.692;9.400;2022-10-31T01:05:27;36.28;;;18.77;;
28926;SDS011;16038;47.692;9.400;2022-10-31T01:07:53;26.35;;;17.15;;
28926;SDS011;16038;47.692;9.400;2022-10-31T01:10:18;32.40;;;16.30;;
28926;SDS011;16038;47.692;9.400;2022-10-31T01:12:45;58.97;;;19.88;;
28926;SDS011;16038;47.692;9.400;2022-10-31T01:15:12;28.25;;;16.30;;
28926;SDS011;16038;47.692;9.400;2022-10-31T01:17:39;35.60;;;17.42;;
28926;SDS011;16038;47.692;9.400;2022-10-31T01:20:06;29.75;;;16.48;;
28926;SDS011;16038;47.692;9.400;2022-10-31T01:22:33;25.73;;;16.42;;
28926;SDS011;16038;47.692;9.400;2022-10-31T01:24:58;28.35;;;15.50;;
28926;SDS011;16038;47.692;9.400;2022-10-31T01:27:24;41.17;;;17.60;;
28926;SDS011;16038;47.692;9.400;2022-10-31T01:29:49;37.53;;;17.70;;
28926;SDS011;16038;47.692;9.400;2022-10-31T01:32:15;39.00;;;17.25;;
28926;SDS011;16038;47.692;9.400;2022-10-31T01:34:40;24.75;;;16.15;;
28926;SDS011;16038;47.692;9.400;2022-10-31T01:37:05;25.15;;;15.10;;
28926;SDS011;16038;47.692;9.400;2022-10-31T01:39:31;23.02;;;15.80;;
28926;SDS011;16038;47.692;9.400;2022-10-31T01:41:56;40.63;;;15.85;;
28926;SDS011;16038;47.692;9.400;2022-10-31T01:49:22;31.90;;;15.02;;
28926;SDS011;16038;47.692;9.400;2022-10-31T01:51:51;46.15;;;16.13;;
28926;SDS011;16038;47.692;9.400;2022-10-31T01:54:21;75.93;;;16.45;;
28926;SDS011;16038;47.692;9.400;2022-10-31T01:56:51;91.15;;;17.75;;
28926;SDS011;16038;47.692;9.400;2022-10-31T01:59:20;105.85;;;21.02;;
28926;SDS011;16038;47.692;9.400;2022-10-31T02:01:49;71.68;;;23.58;;
28926;SDS011;16038;47.692;9.400;2022-10-31T02:04:16;71.55;;;21.50;;
28926;SDS011;16038;47.692;9.400;2022-10-31T02:06:49;63.38;;;23.50;;
28926;SDS011;16038;47.692;9.400;2022-10-31T02:09:20;66.38;;;21.58;;
28926;SDS011;16038;47.692;9.400;2022-10-31T02:11:49;99.82;;;24.52;;
28926;SDS011;16038;47.692;9.400;2022-10-31T02:14:17;38.55;;;21.08;;
28926;SDS011;16038;47.692;9.400;2022-10-31T02:16:43;71.72;;;25.60;;
28926;SDS011;16038;47.692;9.400;2022-10-31T02:19:09;67.85;;;25.65;;
28926;SDS011;16038;47.692;9.400;2022-10-31T02:21:49;44.45;;;22.42;;
28926;SDS011;16038;47.692;9.400;2022-10-31T02:32:47;126.22;;;24.75;;
28926;SDS011;16038;47.692;9.400;2022-10-31T02:43:27;125.03;;;28.83;;
28926;SDS011;16038;47.692;9.400;2022-10-31T02:46:02;60.83;;;27.88;;
28926;SDS011;16038;47.692;9.400;2022-10-31T02:48:30;44.65;;;25.92;;
28926;SDS011;16038;47.692;9.400;2022-10-31T02:51:00;187.85;;;32.33;;
28926;SDS011;16038;47.692;9.400;2022-10-31T02:53:32;67.40;;;29.75;;
28926;SDS011;16038;47.692;9.400;2022-10-31T02:56:00;62.30;;;27.23;;
28926;SDS011;16038;47.692;9.400;2022-10-31T02:58:31;42.10;;;26.92;;
28926;SDS011;16038;47.692;9.400;2022-10-31T03:06:31;49.90;;;25.92;;
28926;SDS011;16038;47.692;9.400;2022-10-31T03:09:06;122.53;;;29.42;;
28926;SDS011;16038;47.692;9.400;2022-10-31T03:11:58;113.75;;;28.85;;
28926;SDS011;16038;47.692;9.400;2022-10-31T03:14:43;135.80;;;29.75;;
28926;SDS011;16038;47.692;9.400;2022-10-31T03:17:17;131.95;;;29.67;;
28926;SDS011;16038;47.692;9.400;2022-10-31T03:19:52;110.68;;;30.25;;
28926;SDS011;16038;47.692;9.400;2022-10-31T03:22:21;152.80;;;34.88;;
28926;SDS011;16038;47.692;9.400;2022-10-31T03:24:50;64.07;;;32.53;;
28926;SDS011;16038;47.692;9.400;2022-10-31T03:27:21;62.75;;;36.38;;
28926;SDS011;16038;47.692;9.400;2022-10-31T03:32:17;122.22;;;35.05;;
28926;SDS011;16038;47.692;9.400;2022-10-31T03:34:46;100.57;;;38.30;;
28926;SDS011;16038;47.692;9.400;2022-10-31T03:37:14;59.05;;;32.95;;
28926;SDS011;16038;47.692;9.400;2022-10-31T03:39:43;122.15;;;36.95;;
28926;SDS011;16038;47.692;9.400;2022-10-31T03:42:11;95.15;;;37.70;;
28926;SDS011;16038;47.692;9.400;2022-10-31T03:44:46;150.93;;;37.75;;
28926;SDS011;16038;47.692;9.400;2022-10-31T03:47:18;102.00;;;35.30;;
28926;SDS011;16038;47.692;9.400;2022-10-31T03:49:44;85.97;;;35.90;;
28926;SDS011;16038;47.692;9.400;2022-10-31T03:54:53;142.57;;;40.92;;
28926;SDS011;16038;47.692;9.400;2022-10-31T04:00:10;148.10;;;42.75;;
28926;SDS011;16038;47.692;9.400;2022-10-31T04:02:38;156.85;;;43.97;;
28926;SDS011;16038;47.692;9.400;2022-10-31T04:05:10;126.28;;;47.63;;
28926;SDS011;16038;47.692;9.400;2022-10-31T04:07:39;127.25;;;46.05;;
28926;SDS011;16038;47.692;9.400;2022-10-31T04:10:10;158.38;;;48.90;;
28926;SDS011;16038;47.692;9.400;2022-10-31T04:12:40;111.63;;;46.33;;
28926;SDS011;16038;47.692;9.400;2022-10-31T04:15:08;113.10;;;47.10;;
28926;SDS011;16038;47.692;9.400;2022-10-31T04:17:36;127.53;;;49.00;;
28926;SDS011;16038;47.692;9.400;2022-10-31T04:20:06;77.32;;;43.63;;
28926;SDS011;16038;47.692;9.400;2022-10-31T04:22:32;107.28;;;46.25;;
28926;SDS011;16038;47.692;9.400;2022-10-31T04:24:57;163.27;;;48.08;;
28926;SDS011;16038;47.692;9.400;2022-10-31T04:27:23;186.98;;;48.28;;
28926;SDS011;16038;47.692;9.400;2022-10-31T04:29:48;155.68;;;46.85;;
28926;SDS011;16038;47.692;9.400;2022-10-31T04:32:14;339.05;;;53.05;;
28926;SDS011;16038;47.692;9.400;2022-10-31T04:34:39;199.50;;;49.45;;
28926;SDS011;16038;47.692;9.400;2022-10-31T04:37:04;247.10;;;51.80;;
28926;SDS011;16038;47.692;9.400;2022-10-31T04:39:30;175.27;;;49.38;;
28926;SDS011;16038;47.692;9.400;2022-10-31T04:41:55;250.13;;;49.80;;
28926;SDS011;16038;47.692;9.400;2022-10-31T04:44:20;211.85;;;49.67;;
28926;SDS011;16038;47.692;9.400;2022-10-31T04:46:46;163.95;;;49.33;;
28926;SDS011;16038;47.692;9.400;2022-10-31T04:49:11;318.60;;;56.88;;
28926;SDS011;16038;47.692;9.400;2022-10-31T04:51:37;172.00;;;55.65;;
28926;SDS011;16038;47.692;9.400;2022-10-31T04:54:02;145.65;;;56.33;;
28926;SDS011;16038;47.692;9.400;2022-10-31T04:56:28;122.82;;;56.03;;
28926;SDS011;16038;47.692;9.400;2022-10-31T04:58:54;174.68;;;59.25;;
28926;SDS011;16038;47.692;9.400;2022-10-31T05:01:19;120.78;;;55.17;;
28926;SDS011;16038;47.692;9.400;2022-10-31T05:03:44;180.10;;;58.97;;
28926;SDS011;16038;47.692;9.400;2022-10-31T05:06:10;86.57;;;48.83;;
28926;SDS011;16038;47.692;9.400;2022-10-31T05:08:35;110.50;;;51.80;;
28926;SDS011;16038;47.692;9.400;2022-10-31T05:11:01;82.28;;;47.63;;
28926;SDS011;16038;47.692;9.400;2022-10-31T05:13:27;97.47;;;50.28;;
28926;SDS011;16038;47.692;9.400;2022-10-31T05:15:53;78.88;;;45.85;;
28926;SDS011;16038;47.692;9.400;2022-10-31T05:18:18;74.43;;;44.05;;
28926;SDS011;16038;47.692;9.400;2022-10-31T05:20:43;80.75;;;44.17;;
28926;SDS011;16038;47.692;9.400;2022-10-31T05:23:09;68.00;;;42.17;;
28926;SDS011;16038;47.692;9.400;2022-10-31T05:25:34;89.75;;;43.22;;
28926;SDS011;16038;47.692;9.400;2022-10-31T05:28:00;55.65;;;38.25;;
28926;SDS011;16038;47.692;9.400;2022-10-31T05:30:27;52.38;;;36.78;;
28926;SDS011;16038;47.692;9.400;2022-10-31T05:32:54;56.70;;;37.35;;
28926;SDS011;16038;47.692;9.400;2022-10-31T05:35:24;128.57;;;39.42;;
28926;SDS011;16038;47.692;9.400;2022-10-31T05:37:54;44.63;;;32.67;;
28926;SDS011;16038;47.692;9.400;2022-10-31T05:40:21;49.03;;;32.92;;
28926;SDS011;16038;47.692;9.400;2022-10-31T05:42:47;60.58;;;33.67;;
28926;SDS011;16038;47.692;9.400;2022-10-31T05:45:15;59.40;;;34.67;;
28926;SDS011;16038;47.692;9.400;2022-10-31T05:47:42;76.28;;;34.45;;
28926;SDS011;16038;47.692;9.400;2022-10-31T05:50:08;45.33;;;32.97;;
28926;SDS011;16038;47.692;9.400;2022-10-31T05:52:34;59.90;;;34.35;;
28926;SDS011;16038;47.692;9.400;2022-10-31T05:54:59;41.20;;;30.75;;
28926;SDS011;16038;47.692;9.400;2022-10-31T05:57:25;41.28;;;30.13;;
28926;SDS011;16038;47.692;9.400;2022-10-31T05:59:50;58.65;;;30.02;;
28926;SDS011;16038;47.692;9.400;2022-10-31T06:02:19;45.72;;;30.80;;
28926;SDS011;16038;47.692;9.400;2022-10-31T06:04:45;39.75;;;30.02;;
28926;SDS011;16038;47.692;9.400;2022-10-31T06:07:10;36.75;;;27.40;;
28926;SDS011;16038;47.692;9.400;2022-10-31T06:09:36;38.53;;;25.75;;
28926;SDS011;16038;47.692;9.400;2022-10-31T06:12:01;30.58;;;22.90;;
28926;SDS011;16038;47.692;9.400;2022-10-31T06:14:26;29.38;;;21.38;;
28926;SDS011;16038;47.692;9.400;2022-10-31T06:16:53;45.90;;;21.98;;
28926;SDS011;16038;47.692;9.400;2022-10-31T06:19:19;27.05;;;20.70;;
28926;SDS011;16038;47.692;9.400;2022-10-31T06:21:45;66.10;;;20.40;;
28926;SDS011;16038;47.692;9.400;2022-10-31T06:24:10;30.55;;;20.63;;
28926;SDS011;16038;47.692;9.400;2022-10-31T06:26:36;221.30;;;23.45;;
28926;SDS011;16038;47.692;9.400;2022-10-31T06:29:01;41.95;;;21.05;;
28926;SDS011;16038;47.692;9.400;2022-10-31T06:31:26;48.38;;;18.98;;
28926;SDS011;16038;47.692;9.400;2022-10-31T06:33:52;28.42;;;19.30;;
28926;SDS011;16038;47.692;9.400;2022-10-31T06:36:24;31.35;;;18.13;;
28926;SDS011;16038;47.692;9.400;2022-10-31T06:38:49;186.93;;;23.40;;
28926;SDS011;16038;47.692;9.400;2022-10-31T06:41:15;153.43;;;23.48;;
28926;SDS011;16038;47.692;9.400;2022-10-31T06:43:40;35.60;;;19.35;;
28926;SDS011;16038;47.692;9.400;2022-10-31T06:46:05;113.10;;;20.10;;
28926;SDS011;16038;47.692;9.400;2022-10-31T06:48:31;215.10;;;25.60;;
28926;SDS011;16038;47.692;9.400;2022-10-31T06:50:57;162.18;;;22.27;;
28926;SDS011;16038;47.692;9.400;2022-10-31T06:53:24;123.03;;;20.85;;
28926;SDS011;16038;47.692;9.400;2022-10-31T06:55:50;157.00;;;23.40;;
28926;SDS011;16038;47.692;9.400;2022-10-31T06:58:15;250.02;;;28.48;;
28926;SDS011;16038;47.692;9.400;2022-10-31T07:00:40;132.98;;;23.95;;
28926;SDS011;16038;47.692;9.400;2022-10-31T07:03:07;124.60;;;23.85;;
28926;SDS011;16038;47.692;9.400;2022-10-31T07:05:35;59.08;;;20.58;;
28926;SDS011;16038;47.692;9.400;2022-10-31T07:08:03;82.07;;;25.38;;
28926;SDS011;16038;47.692;9.400;2022-10-31T07:10:31;147.35;;;26.67;;
28926;SDS011;16038;47.692;9.400;2022-10-31T07:12:59;67.40;;;25.60;;
28926;SDS011;16038;47.692;9.400;2022-10-31T07:15:26;82.15;;;24.88;;
28926;SDS011;16038;47.692;9.400;2022-10-31T07:17:53;187.82;;;42.00;;
28926;SDS011;16038;47.692;9.400;2022-10-31T07:20:19;96.68;;;29.67;;
28926;SDS011;16038;47.692;9.400;2022-10-31T07:22:45;217.98;;;61.53;;
28926;SDS011;16038;47.692;9.400;2022-10-31T07:25:10;226.60;;;37.10;;
28926;SDS011;16038;47.692;9.400;2022-10-31T07:27:37;189.25;;;27.65;;
28926;SDS011;16038;47.692;9.400;2022-10-31T07:30:02;218.48;;;32.10;;
28926;SDS011;16038;47.692;9.400;2022-10-31T07:32:36;56.17;;;23.75;;
28926;SDS011;16038;47.692;9.400;2022-10-31T07:35:12;104.07;;;23.95;;
28926;SDS011;16038;47.692;9.400;2022-10-31T07:37:49;36.70;;;21.35;;
28926;SDS011;16038;47.692;9.400;2022-10-31T07:40:14;152.70;;;25.67;;
28926;SDS011;16038;47.692;9.400;2022-10-31T07:42:42;169.52;;;26.40;;
28926;SDS011;16038;47.692;9.400;2022-10-31T07:45:09;167.90;;;24.67;;
28926;SDS011;16038;47.692;9.400;2022-10-31T07:47:46;172.32;;;28.58;;
28926;SDS011;16038;47.692;9.400;2022-10-31T07:50:14;164.73;;;28.63;;
28926;SDS011;16038;47.692;9.400;2022-10-31T07:52:41;104.10;;;24.02;;
28926;SDS011;16038;47.692;9.400;2022-10-31T07:55:07;156.98;;;27.85;;
28926;SDS011;16038;47.692;9.400;2022-10-31T07:57:33;202.07;;;29.85;;
28926;SDS011;16038;47.692;9.400;2022-10-31T07:59:58;230.38;;;29.65;;
28926;SDS011;16038;47.692;9.400;2022-10-31T08:02:24;193.65;;;28.20;;
28926;SDS011;16038;47.692;9.400;2022-10-31T08:04:49;101.57;;;26.70;;
28926;SDS011;16038;47.692;9.400;2022-10-31T08:07:15;230.82;;;29.45;;
28926;SDS011;16038;47.692;9.400;2022-10-31T08:09:41;211.93;;;28.00;;
28926;SDS011;16038;47.692;9.400;2022-10-31T08:12:06;266.08;;;32.33;;
28926;SDS011;16038;47.692;9.400;2022-10-31T08:14:32;50.88;;;26.48;;
28926;SDS011;16038;47.692;9.400;2022-10-31T08:16:57;245.75;;;31.50;;
28926;SDS011;16038;47.692;9.400;2022-10-31T08:19:23;38.10;;;24.67;;
28926;SDS011;16038;47.692;9.400;2022-10-31T08:21:52;35.15;;;24.30;;
28926;SDS011;16038;47.692;9.400;2022-10-31T08:24:20;34.38;;;23.10;;
28926;SDS011;16038;47.692;9.400;2022-10-31T08:26:46;108.05;;;27.20;;
28926;SDS011;16038;47.692;9.400;2022-10-31T08:29:11;52.20;;;25.55;;
28926;SDS011;16038;47.692;9.400;2022-10-31T08:31:37;99.50;;;23.75;;
28926;SDS011;16038;47.692;9.400;2022-10-31T08:34:03;37.60;;;19.92;;
28926;SDS011;16038;47.692;9.400;2022-10-31T08:36:29;25.25;;;19.05;;
28926;SDS011;16038;47.692;9.400;2022-10-31T08:38:55;45.72;;;19.80;;
28926;SDS011;16038;47.692;9.400;2022-10-31T08:41:20;84.88;;;18.80;;
28926;SDS011;16038;47.692;9.400;2022-10-31T08:43:46;84.20;;;18.40;;
28926;SDS011;16038;47.692;9.400;2022-10-31T08:46:11;187.70;;;19.45;;
28926;SDS011;16038;47.692;9.400;2022-10-31T08:48:37;107.63;;;18.95;;
28926;SDS011;16038;47.692;9.400;2022-10-31T08:51:02;24.10;;;16.42;;
28926;SDS011;16038;47.692;9.400;2022-10-31T08:53:28;26.10;;;17.50;;
28926;SDS011;16038;47.692;9.400;2022-10-31T08:55:54;60.78;;;17.67;;
28926;SDS011;16038;47.692;9.400;2022-10-31T08:58:21;138.45;;;18.95;;
28926;SDS011;16038;47.692;9.400;2022-10-31T09:00:48;23.10;;;15.32;;
28926;SDS011;16038;47.692;9.400;2022-10-31T09:03:25;43.20;;;15.63;;
28926;SDS011;16038;47.692;9.400;2022-10-31T09:05:55;22.45;;;14.00;;
28926;SDS011;16038;47.692;9.400;2022-10-31T09:10:50;62.95;;;15.10;;
28926;SDS011;16038;47.692;9.400;2022-10-31T09:13:16;22.88;;;13.35;;
28926;SDS011;16038;47.692;9.400;2022-10-31T09:15:47;27.00;;;13.30;;
28926;SDS011;16038;47.692;9.400;2022-10-31T09:18:14;41.40;;;14.25;;
28926;SDS011;16038;47.692;9.400;2022-10-31T09:20:42;16.45;;;11.95;;
28926;SDS011;16038;47.692;9.400;2022-10-31T09:23:16;17.75;;;12.70;;
28926;SDS011;16038;47.692;9.400;2022-10-31T09:25:43;23.88;;;12.18;;
28926;SDS011;16038;47.692;9.400;2022-10-31T09:28:10;18.92;;;13.13;;
28926;SDS011;16038;47.692;9.400;2022-10-31T09:30:37;27.63;;;12.55;;
28926;SDS011;16038;47.692;9.400;2022-10-31T09:33:04;75.47;;;14.43;;
28926;SDS011;16038;47.692;9.400;2022-10-31T09:35:31;32.33;;;15.27;;
28926;SDS011;16038;47.692;9.400;2022-10-31T09:37:58;79.32;;;14.85;;
28926;SDS011;16038;47.692;9.400;2022-10-31T09:40:29;24.60;;;14.15;;
28926;SDS011;16038;47.692;9.400;2022-10-31T09:45:51;25.13;;;12.93;;
28926;SDS011;16038;47.692;9.400;2022-10-31T09:51:07;37.78;;;17.55;;
28926;SDS011;16038;47.692;9.400;2022-10-31T09:56:05;21.40;;;12.93;;
28926;SDS011;16038;47.692;9.400;2022-10-31T09:58:36;30.75;;;13.57;;
28926;SDS011;16038;47.692;9.400;2022-10-31T10:01:06;23.25;;;13.95;;
28926;SDS011;16038;47.692;9.400;2022-10-31T10:04:09;28.02;;;15.00;;
28926;SDS011;16038;47.692;9.400;2022-10-31T10:06:46;22.00;;;14.48;;
28926;SDS011;16038;47.692;9.400;2022-10-31T10:09:15;39.60;;;16.20;;
28926;SDS011;16038;47.692;9.400;2022-10-31T10:11:51;21.48;;;15.30;;
28926;SDS011;16038;47.692;9.400;2022-10-31T10:17:29;26.17;;;16.60;;
28926;SDS011;16038;47.692;9.400;2022-10-31T10:20:16;36.85;;;16.73;;
28926;SDS011;16038;47.692;9.400;2022-10-31T10:22:57;46.28;;;17.17;;
28926;SDS011;16038;47.692;9.400;2022-10-31T10:25:38;21.90;;;16.55;;
28926;SDS011;16038;47.692;9.400;2022-10-31T10:28:25;23.95;;;16.30;;
28926;SDS011;16038;47.692;9.400;2022-10-31T10:30:59;23.30;;;16.75;;
28926;SDS011;16038;47.692;9.400;2022-10-31T10:33:32;25.83;;;16.63;;
28926;SDS011;16038;47.692;9.400;2022-10-31T10:36:10;23.83;;;15.65;;
28926;SDS011;16038;47.692;9.400;2022-10-31T10:38:48;23.30;;;14.75;;
28926;SDS011;16038;47.692;9.400;2022-10-31T10:41:17;19.75;;;14.98;;
28926;SDS011;16038;47.692;9.400;2022-10-31T10:43:45;28.95;;;15.77;;
28926;SDS011;16038;47.692;9.400;2022-10-31T10:59:43;23.77;;;15.65;;
28926;SDS011;16038;47.692;9.400;2022-10-31T11:02:20;22.95;;;14.98;;
28926;SDS011;16038;47.692;9.400;2022-10-31T11:04:52;26.35;;;15.60;;
28926;SDS011;16038;47.692;9.400;2022-10-31T11:07:22;20.08;;;14.65;;
28926;SDS011;16038;47.692;9.400;2022-10-31T11:09:47;24.67;;;16.02;;
28926;SDS011;16038;47.692;9.400;2022-10-31T11:12:18;21.83;;;15.27;;
28926;SDS011;16038;47.692;9.400;2022-10-31T11:14:55;22.25;;;15.57;;
28926;SDS011;16038;47.692;9.400;2022-10-31T11:17:30;30.65;;;16.75;;
28926;SDS011;16038;47.692;9.400;2022-10-31T11:22:36;26.13;;;16.10;;
28926;SDS011;16038;47.692;9.400;2022-10-31T11:25:14;25.27;;;16.98;;
28926;SDS011;16038;47.692;9.400;2022-10-31T11:28:04;27.42;;;16.17;;
28926;SDS011;16038;47.692;9.400;2022-10-31T11:30:42;25.52;;;15.57;;
28926;SDS011;16038;47.692;9.400;2022-10-31T11:33:17;22.80;;;15.90;;
28926;SDS011;16038;47.692;9.400;2022-10-31T11:35:47;28.80;;;16.98;;
28926;SDS011;16038;47.692;9.400;2022-10-31T11:38:15;23.95;;;15.88;;
28926;SDS011;16038;47.692;9.400;2022-10-31T11:40:57;22.90;;;15.65;;
28926;SDS011;16038;47.692;9.400;2022-10-31T11:43:25;24.10;;;16.65;;
28926;SDS011;16038;47.692;9.400;2022-10-31T11:45:52;25.98;;;15.50;;
28926;SDS011;16038;47.692;9.400;2022-10-31T11:48:19;25.90;;;16.40;;
28926;SDS011;16038;47.692;9.400;2022-10-31T11:50:48;23.25;;;17.30;;
28926;SDS011;16038;47.692;9.400;2022-10-31T11:53:17;20.00;;;14.63;;
28926;SDS011;16038;47.692;9.400;2022-10-31T11:55:45;24.10;;;17.40;;
28926;SDS011;16038;47.692;9.400;2022-10-31T11:58:21;24.65;;;17.60;;
28926;SDS011;16038;47.692;9.400;2022-10-31T12:00:50;22.80;;;16.23;;
28926;SDS011;16038;47.692;9.400;2022-10-31T12:06:06;28.33;;;18.52;;
28926;SDS011;16038;47.692;9.400;2022-10-31T12:08:37;25.52;;;16.42;;
28926;SDS011;16038;47.692;9.400;2022-10-31T12:19:34;28.42;;;18.92;;
28926;SDS011;16038;47.692;9.400;2022-10-31T12:30:21;24.83;;;19.00;;
28926;SDS011;16038;47.692;9.400;2022-10-31T12:33:02;32.30;;;18.98;;
28926;SDS011;16038;47.692;9.400;2022-10-31T12:41:15;29.77;;;19.25;;
28926;SDS011;16038;47.692;9.400;2022-10-31T12:53:24;37.80;;;23.40;;
28926;SDS011;16038;47.692;9.400;2022-10-31T12:56:16;32.92;;;20.38;;
28926;SDS011;16038;47.692;9.400;2022-10-31T12:59:20;28.63;;;17.55;;
28926;SDS011;16038;47.692;9.400;2022-10-31T13:05:01;35.20;;;19.83;;
28926;SDS011;16038;47.692;9.400;2022-10-31T13:07:39;30.80;;;19.88;;
28926;SDS011;16038;47.692;9.400;2022-10-31T13:10:59;30.48;;;20.00;;
28926;SDS011;16038;47.692;9.400;2022-10-31T13:13:13;30.15;;;18.50;;
28926;SDS011;16038;47.692;9.400;2022-10-31T13:15:53;24.95;;;18.42;;
28926;SDS011;16038;47.692;9.400;2022-10-31T13:20:57;33.70;;;20.60;;
28926;SDS011;16038;47.692;9.400;2022-10-31T13:25:59;38.80;;;18.25;;
28926;SDS011;16038;47.692;9.400;2022-10-31T13:28:40;31.88;;;19.23;;
28926;SDS011;16038;47.692;9.400;2022-10-31T13:31:11;29.90;;;18.25;;
28926;SDS011;16038;47.692;9.400;2022-10-31T13:36:15;27.27;;;18.42;;
28926;SDS011;16038;47.692;9.400;2022-10-31T13:41:53;31.25;;;19.23;;
28926;SDS011;16038;47.692;9.400;2022-10-31T13:44:24;34.15;;;19.85;;
28926;SDS011;16038;47.692;9.400;2022-10-31T13:46:52;34.13;;;19.95;;
28926;SDS011;16038;47.692;9.400;2022-10-31T13:49:39;36.33;;;20.20;;
28926;SDS011;16038;47.692;9.400;2022-10-31T13:52:05;33.22;;;21.77;;
28926;SDS011;16038;47.692;9.400;2022-10-31T13:54:34;33.67;;;21.63;;
28926;SDS011;16038;47.692;9.400;2022-10-31T13:57:01;31.73;;;21.42;;
28926;SDS011;16038;47.692;9.400;2022-10-31T13:59:30;35.42;;;22.08;;
28926;SDS011;16038;47.692;9.400;2022-10-31T14:01:59;33.95;;;22.70;;
28926;SDS011;16038;47.692;9.400;2022-10-31T14:04:28;32.35;;;22.38;;
28926;SDS011;16038;47.692;9.400;2022-10-31T14:07:18;40.28;;;25.75;;
28926;SDS011;16038;47.692;9.400;2022-10-31T14:14:51;34.83;;;23.00;;
28926;SDS011;16038;47.692;9.400;2022-10-31T14:17:22;52.83;;;31.30;;
28926;SDS011;16038;47.692;9.400;2022-10-31T14:20:52;38.20;;;24.45;;
28926;SDS011;16038;47.692;9.400;2022-10-31T14:28:39;39.05;;;26.15;;
28926;SDS011;16038;47.692;9.400;2022-10-31T14:31:21;38.80;;;25.65;;
28926;SDS011;16038;47.692;9.400;2022-10-31T14:33:53;48.17;;;27.25;;
28926;SDS011;16038;47.692;9.400;2022-10-31T14:36:23;50.88;;;26.65;;
28926;SDS011;16038;47.692;9.400;2022-10-31T14:44:56;59.50;;;30.05;;
28926;SDS011;16038;47.692;9.400;2022-10-31T14:53:22;53.55;;;29.88;;
28926;SDS011;16038;47.692;9.400;2022-10-31T14:55:52;50.42;;;32.50;;
28926;SDS011;16038;47.692;9.400;2022-10-31T14:59:02;55.33;;;32.47;;
28926;SDS011;16038;47.692;9.400;2022-10-31T15:01:50;54.58;;;32.20;;
28926;SDS011;16038;47.692;9.400;2022-10-31T15:04:17;59.53;;;32.05;;
28926;SDS011;16038;47.692;9.400;2022-10-31T15:06:49;60.65;;;31.38;;
28926;SDS011;16038;47.692;9.400;2022-10-31T15:09:35;51.25;;;30.98;;
28926;SDS011;16038;47.692;9.400;2022-10-31T15:14:46;115.28;;;32.97;;
28926;SDS011;16038;47.692;9.400;2022-10-31T15:17:12;191.63;;;31.42;;
28926;SDS011;16038;47.692;9.400;2022-10-31T15:19:37;104.57;;;26.95;;
28926;SDS011;16038;47.692;9.400;2022-10-31T15:22:03;92.85;;;28.52;;
28926;SDS011;16038;47.692;9.400;2022-10-31T15:24:34;75.18;;;31.50;;
28926;SDS011;16038;47.692;9.400;2022-10-31T15:27:03;80.60;;;29.70;;
28926;SDS011;16038;47.692;9.400;2022-10-31T15:29:30;68.63;;;27.27;;
28926;SDS011;16038;47.692;9.400;2022-10-31T15:34:27;70.10;;;26.75;;
28926;SDS011;16038;47.692;9.400;2022-10-31T15:36:54;72.50;;;27.25;;
28926;SDS011;16038;47.692;9.400;2022-10-31T15:39:19;106.05;;;26.40;;
28926;SDS011;16038;47.692;9.400;2022-10-31T15:41:52;182.45;;;28.77;;
28926;SDS011;16038;47.692;9.400;2022-10-31T15:44:36;118.68;;;28.92;;
28926;SDS011;16038;47.692;9.400;2022-10-31T15:47:06;63.55;;;28.70;;
28926;SDS011;16038;47.692;9.400;2022-10-31T15:49:41;89.95;;;27.80;;
28926;SDS011;16038;47.692;9.400;2022-10-31T15:52:14;42.65;;;28.00;;
28926;SDS011;16038;47.692;9.400;2022-10-31T15:54:45;61.25;;;30.63;;
28926;SDS011;16038;47.692;9.400;2022-10-31T15:57:16;60.25;;;32.20;;
28926;SDS011;16038;47.692;9.400;2022-10-31T15:59:44;145.52;;;32.83;;
28926;SDS011;16038;47.692;9.400;2022-10-31T16:04:47;91.72;;;33.25;;
28926;SDS011;16038;47.692;9.400;2022-10-31T16:07:15;42.78;;;30.52;;
28926;SDS011;16038;47.692;9.400;2022-10-31T16:09:59;95.72;;;30.00;;
28926;SDS011;16038;47.692;9.400;2022-10-31T16:12:45;278.85;;;35.72;;
28926;SDS011;16038;47.692;9.400;2022-10-31T16:15:13;326.85;;;37.70;;
28926;SDS011;16038;47.692;9.400;2022-10-31T16:17:41;103.25;;;29.00;;
28926;SDS011;16038;47.692;9.400;2022-10-31T16:20:25;59.85;;;30.08;;
28926;SDS011;16038;47.692;9.400;2022-10-31T16:22:54;151.27;;;39.17;;
28926;SDS011;16038;47.692;9.400;2022-10-31T16:25:35;174.65;;;37.17;;
28926;SDS011;16038;47.692;9.400;2022-10-31T16:28:13;88.97;;;38.03;;
28926;SDS011;16038;47.692;9.400;2022-10-31T16:33:28;91.82;;;37.85;;
28926;SDS011;16038;47.692;9.400;2022-10-31T16:35:54;82.82;;;37.33;;
28926;SDS011;16038;47.692;9.400;2022-10-31T16:38:20;62.78;;;33.72;;
28926;SDS011;16038;47.692;9.400;2022-10-31T16:40:46;77.43;;;34.55;;
28926;SDS011;16038;47.692;9.400;2022-10-31T16:43:12;107.28;;;34.05;;
28926;SDS011;16038;47.692;9.400;2022-10-31T16:45:50;53.70;;;33.15;;
28926;SDS011;16038;47.692;9.400;2022-10-31T16:48:18;54.20;;;33.10;;
28926;SDS011;16038;47.692;9.400;2022-10-31T16:53:12;58.75;;;32.92;;
28926;SDS011;16038;47.692;9.400;2022-10-31T16:55:48;152.82;;;34.95;;
28926;SDS011;16038;47.692;9.400;2022-10-31T16:58:21;163.18;;;35.35;;
28926;SDS011;16038;47.692;9.400;2022-10-31T17:00:50;196.35;;;46.55;;
28926;SDS011;16038;47.692;9.400;2022-10-31T17:03:16;115.97;;;35.13;;